createdAt,value
2022-10-25T00:00:33.899Z,12.64
2022-10-25T00:01:33.977Z,12.77
2022-10-25T00:02:33.921Z,12.70
2022-10-25T00:03:33.850Z,12.71
2022-10-25T00:04:33.868Z,12.77
2022-10-25T00:05:33.861Z,12.77
2022-10-25T00:06:33.804Z,12.77
2022-10-25T00:07:33.797Z,12.78
2022-10-25T00:08:33.775Z,12.74
2022-10-25T00:09:33.766Z,12.77
2022-10-25T00:10:33.746Z,12.75
2022-10-25T00:11:33.742Z,12.74
2022-10-25T00:12:33.734Z,12.71
2022-10-25T00:13:33.709Z,12.74
2022-10-25T00:14:33.685Z,12.74
2022-10-25T00:15:33.670Z,12.74
2022-10-25T00:16:33.694Z,12.74
2022-10-25T00:17:33.643Z,12.72
2022-10-25T00:18:33.662Z,12.68
2022-10-25T00:19:33.612Z,12.68
2022-10-25T00:20:33.631Z,12.70
2022-10-25T00:21:33.591Z,12.70
2022-10-25T00:22:33.596Z,12.70
2022-10-25T00:23:33.584Z,12.72
2022-10-25T00:24:33.564Z,12.65
2022-10-25T00:25:33.550Z,12.67
2022-10-25T00:26:33.534Z,12.67
2022-10-25T00:27:33.515Z,12.70
2022-10-25T00:28:33.475Z,12.70
2022-10-25T00:29:33.473Z,12.68
2022-10-25T00:30:33.483Z,12.62
2022-10-25T00:31:33.434Z,12.59
2022-10-25T00:32:33.418Z,12.59
2022-10-25T00:33:33.407Z,12.62
2022-10-25T00:34:33.417Z,12.64
2022-10-25T00:35:33.405Z,12.64
2022-10-25T00:36:33.359Z,12.60
2022-10-25T00:37:33.405Z,12.64
2022-10-25T00:38:33.330Z,12.71
2022-10-25T00:39:33.318Z,12.65
2022-10-25T00:40:33.297Z,12.64
2022-10-25T00:41:33.306Z,12.77
2022-10-25T00:42:33.271Z,12.72
2022-10-25T00:43:33.250Z,12.72
2022-10-25T00:44:33.240Z,12.77
2022-10-25T00:45:33.220Z,12.82
2022-10-25T00:46:33.216Z,12.74
2022-10-25T00:47:33.201Z,12.72
2022-10-25T00:48:33.185Z,12.71
2022-10-25T00:49:33.166Z,12.82
2022-10-25T00:50:33.151Z,12.65
2022-10-25T00:51:33.155Z,12.82
2022-10-25T00:52:33.160Z,12.86
2022-10-25T00:53:33.107Z,12.78
2022-10-25T00:54:33.089Z,12.87
2022-10-25T00:55:33.069Z,12.86
2022-10-25T00:56:33.063Z,12.85
2022-10-25T00:57:33.042Z,12.87
2022-10-25T00:58:33.100Z,12.86
2022-10-25T00:59:33.012Z,12.87
2022-10-25T01:00:32.997Z,12.89
2022-10-25T01:01:33.063Z,12.95
2022-10-25T01:02:33.105Z,12.85
2022-10-25T01:03:32.961Z,12.77
2022-10-25T01:04:32.940Z,12.70
2022-10-25T01:05:32.928Z,12.75
2022-10-25T01:06:32.916Z,12.82
2022-10-25T01:07:32.901Z,12.70
2022-10-25T01:08:32.903Z,12.74
2022-10-25T01:09:32.863Z,12.67
2022-10-25T01:10:32.855Z,12.75
2022-10-25T01:11:32.843Z,12.74
2022-10-25T01:12:32.829Z,12.72
2022-10-25T01:13:32.858Z,12.72
2022-10-25T01:14:32.807Z,12.64
2022-10-25T01:15:32.780Z,12.72
2022-10-25T01:16:32.765Z,12.68
2022-10-25T01:17:32.754Z,12.75
2022-10-25T01:18:32.728Z,12.65
2022-10-25T01:20:32.741Z,12.65
2022-10-25T01:21:32.685Z,12.68
2022-10-25T01:22:32.673Z,12.68
2022-10-25T01:23:32.678Z,12.72
2022-10-25T01:24:32.646Z,12.70
2022-10-25T01:25:32.626Z,12.71
2022-10-25T01:26:32.746Z,12.71
2022-10-25T01:27:32.653Z,12.68
2022-10-25T01:28:32.923Z,12.70
2022-10-25T01:29:32.567Z,12.70
2022-10-25T01:30:32.564Z,12.70
2022-10-25T01:31:32.537Z,12.68
2022-10-25T01:32:32.581Z,12.72
2022-10-25T01:33:32.503Z,12.67
2022-10-25T01:34:32.503Z,12.72
2022-10-25T01:35:32.539Z,12.74
2022-10-25T01:36:32.461Z,12.70
2022-10-25T01:37:32.466Z,12.74
2022-10-25T01:38:32.434Z,12.72
2022-10-25T01:39:32.416Z,12.71
2022-10-25T01:40:32.422Z,12.77
2022-10-25T01:41:32.570Z,12.75
2022-10-25T01:42:32.411Z,12.77
2022-10-25T01:43:32.352Z,12.68
2022-10-25T01:44:32.406Z,12.83
2022-10-25T01:45:32.423Z,12.85
2022-10-25T01:46:32.362Z,12.86
2022-10-25T01:47:32.351Z,12.85
2022-10-25T01:48:32.285Z,12.92
2022-10-25T01:49:32.262Z,12.95
2022-10-25T01:50:32.252Z,12.78
2022-10-25T01:51:32.251Z,12.89
2022-10-25T01:52:32.225Z,12.86
2022-10-25T01:53:32.238Z,12.79
2022-10-25T01:54:32.189Z,12.78
2022-10-25T01:55:32.173Z,12.83
2022-10-25T01:56:32.164Z,12.87
2022-10-25T01:57:32.175Z,12.95
2022-10-25T01:58:32.138Z,12.92
2022-10-25T01:59:32.145Z,13.03
2022-10-25T02:00:32.129Z,12.95
2022-10-25T02:01:32.278Z,12.96
2022-10-25T02:02:32.084Z,12.96
2022-10-25T02:03:32.056Z,12.92
2022-10-25T02:04:32.103Z,12.92
2022-10-25T02:05:32.055Z,12.92
2022-10-25T02:06:32.035Z,12.92
2022-10-25T02:07:32.002Z,12.92
2022-10-25T02:08:31.989Z,12.92
2022-10-25T02:09:31.971Z,12.96
2022-10-25T02:10:31.959Z,12.96
2022-10-25T02:11:31.943Z,12.95
2022-10-25T02:12:31.927Z,12.92
2022-10-25T02:13:31.937Z,12.87
2022-10-25T02:14:31.925Z,12.93
2022-10-25T02:15:31.896Z,12.95
2022-10-25T02:16:31.865Z,12.92
2022-10-25T02:17:31.851Z,12.97
2022-10-25T02:19:31.869Z,12.95
2022-10-25T02:20:31.810Z,12.95
2022-10-25T02:21:31.789Z,12.95
2022-10-25T02:22:31.784Z,12.96
2022-10-25T02:23:31.784Z,12.95
2022-10-25T02:24:31.771Z,12.95
2022-10-25T02:25:31.745Z,13.01
2022-10-25T02:26:31.716Z,13.00
2022-10-25T02:27:31.702Z,13.00
2022-10-25T02:28:31.702Z,13.00
2022-10-25T02:29:31.695Z,13.00
2022-10-25T02:30:31.686Z,12.97
2022-10-25T02:31:31.665Z,12.97
2022-10-25T02:32:31.628Z,12.95
2022-10-25T02:33:31.626Z,13.03
2022-10-25T02:34:31.598Z,12.97
2022-10-25T02:35:31.591Z,12.97
2022-10-25T02:36:31.595Z,13.10
2022-10-25T02:37:31.553Z,13.08
2022-10-25T02:38:31.543Z,13.07
2022-10-25T02:39:31.905Z,13.04
2022-10-25T02:40:31.508Z,13.03
2022-10-25T02:41:31.549Z,13.11
2022-10-25T02:42:31.480Z,13.10
2022-10-25T02:43:31.467Z,13.08
2022-10-25T02:44:31.456Z,13.08
2022-10-25T02:45:31.437Z,13.11
2022-10-25T02:46:31.422Z,13.10
2022-10-25T02:47:31.486Z,13.10
2022-10-25T02:48:31.390Z,13.08
2022-10-25T02:49:31.372Z,13.08
2022-10-25T02:50:31.363Z,13.23
2022-10-25T02:51:31.368Z,13.17
2022-10-25T02:52:31.329Z,13.15
2022-10-25T02:53:31.317Z,13.11
2022-10-25T02:54:31.327Z,13.15
2022-10-25T02:55:31.290Z,13.11
2022-10-25T02:56:31.274Z,13.17
2022-10-25T02:57:31.266Z,13.15
2022-10-25T02:58:31.240Z,13.10
2022-10-25T02:59:31.250Z,13.10
2022-10-25T03:00:31.278Z,13.12
2022-10-25T03:01:31.311Z,13.15
2022-10-25T03:02:31.185Z,13.08
2022-10-25T03:03:31.170Z,13.17
2022-10-25T03:04:31.194Z,13.15
2022-10-25T03:05:31.143Z,13.11
2022-10-25T03:06:31.126Z,13.12
2022-10-25T03:07:31.106Z,13.11
2022-10-25T03:08:31.100Z,13.10
2022-10-25T03:09:31.109Z,13.14
2022-10-25T03:10:31.073Z,13.17
2022-10-25T03:11:31.100Z,13.12
2022-10-25T03:12:31.038Z,13.10
2022-10-25T03:13:31.027Z,13.08
2022-10-25T03:14:31.029Z,13.14
2022-10-25T03:15:30.991Z,13.11
2022-10-25T03:16:30.977Z,13.10
2022-10-25T03:17:30.963Z,13.07
2022-10-25T03:18:30.949Z,13.11
2022-10-25T03:19:30.929Z,13.10
2022-10-25T03:20:30.954Z,13.20
2022-10-25T03:21:30.904Z,13.17
2022-10-25T03:22:30.895Z,13.17
2022-10-25T03:23:30.870Z,13.08
2022-10-25T03:24:30.869Z,13.19
2022-10-25T03:25:30.847Z,13.19
2022-10-25T03:26:30.827Z,13.25
2022-10-25T03:27:30.819Z,13.22
2022-10-25T03:28:30.836Z,13.28
2022-10-25T03:29:30.811Z,13.14
2022-10-25T03:30:30.773Z,13.15
2022-10-25T03:31:30.763Z,13.22
2022-10-25T03:32:30.771Z,13.22
2022-10-25T03:34:30.747Z,13.22
2022-10-25T03:35:30.709Z,13.14
2022-10-25T03:36:30.683Z,13.23
2022-10-25T03:37:30.739Z,13.25
2022-10-25T03:38:30.658Z,13.23
2022-10-25T03:39:30.642Z,13.19
2022-10-25T03:40:30.624Z,13.14
2022-10-25T03:41:30.611Z,13.11
2022-10-25T03:42:30.600Z,13.15
2022-10-25T03:43:30.606Z,13.20
2022-10-25T03:44:30.619Z,13.20
2022-10-25T03:45:30.547Z,13.11
2022-10-25T03:46:30.539Z,13.19
2022-10-25T03:47:30.523Z,13.25
2022-10-25T03:48:30.529Z,13.17
2022-10-25T03:49:30.511Z,13.19
2022-10-25T03:50:30.507Z,13.19
2022-10-25T03:51:30.464Z,13.22
2022-10-25T03:52:30.461Z,13.15
2022-10-25T03:53:30.432Z,13.20
2022-10-25T03:54:30.425Z,13.25
2022-10-25T03:55:30.437Z,13.19
2022-10-25T03:56:30.389Z,13.12
2022-10-25T03:57:30.376Z,13.10
2022-10-25T03:58:30.364Z,13.26
2022-10-25T03:59:30.359Z,13.15
2022-10-25T04:00:30.451Z,13.28
2022-10-25T04:01:30.472Z,13.23
2022-10-25T04:02:30.313Z,13.23
2022-10-25T04:03:30.284Z,13.22
2022-10-25T04:04:30.275Z,13.26
2022-10-25T04:05:30.270Z,13.15
2022-10-25T04:06:30.297Z,13.23
2022-10-25T04:07:30.226Z,13.20
2022-10-25T04:08:30.227Z,13.28
2022-10-25T04:09:30.211Z,13.32
2022-10-25T04:10:30.189Z,13.33
2022-10-25T04:11:30.168Z,13.30
2022-10-25T04:12:30.228Z,13.28
2022-10-25T04:13:30.144Z,13.29
2022-10-25T04:14:30.128Z,13.15
2022-10-25T04:15:30.123Z,13.15
2022-10-25T04:16:30.109Z,13.25
2022-10-25T04:17:30.082Z,13.19
2022-10-25T04:18:30.084Z,13.29
2022-10-25T04:19:30.070Z,13.25
2022-10-25T04:20:30.045Z,13.30
2022-10-25T04:21:30.033Z,13.25
2022-10-25T04:22:30.038Z,13.25
2022-10-25T04:23:30.020Z,13.25
2022-10-25T04:24:30.015Z,13.26
2022-10-25T04:25:29.971Z,13.32
2022-10-25T04:26:29.952Z,13.30
2022-10-25T04:27:29.939Z,13.25
2022-10-25T04:28:29.919Z,13.25
2022-10-25T04:29:29.908Z,13.23
2022-10-25T04:30:31.275Z,13.26
2022-10-25T04:31:29.878Z,13.26
2022-10-25T04:32:29.866Z,13.29
2022-10-25T04:33:29.850Z,13.25
2022-10-25T04:34:29.863Z,13.29
2022-10-25T04:35:29.822Z,13.30
2022-10-25T04:36:29.831Z,13.30
2022-10-25T04:37:29.787Z,13.33
2022-10-25T04:38:29.777Z,13.14
2022-10-25T04:39:29.763Z,13.28
2022-10-25T04:40:29.774Z,13.26
2022-10-25T04:41:29.763Z,13.33
2022-10-25T04:42:29.717Z,13.26
2022-10-25T04:43:29.707Z,13.28
2022-10-25T04:44:29.691Z,13.30
2022-10-25T04:45:29.699Z,13.29
2022-10-25T04:46:29.664Z,13.32
2022-10-25T04:47:29.656Z,13.28
2022-10-25T04:48:29.628Z,13.26
2022-10-25T04:49:29.616Z,13.36
2022-10-25T04:50:29.660Z,13.33
2022-10-25T04:51:29.588Z,13.33
2022-10-25T04:52:29.571Z,13.29
2022-10-25T04:53:29.557Z,13.30
2022-10-25T04:54:29.541Z,13.28
2022-10-25T04:55:29.535Z,13.30
2022-10-25T04:56:29.560Z,13.28
2022-10-25T04:57:29.498Z,13.33
2022-10-25T04:58:31.439Z,13.28
2022-10-25T04:59:29.473Z,13.33
2022-10-25T05:00:29.453Z,13.28
2022-10-25T05:01:29.569Z,13.33
2022-10-25T05:02:29.452Z,13.30
2022-10-25T05:03:29.496Z,13.28
2022-10-25T05:04:29.394Z,13.33
2022-10-25T05:05:29.385Z,13.30
2022-10-25T05:06:29.396Z,13.29
2022-10-25T05:07:29.350Z,13.36
2022-10-25T05:08:29.338Z,13.33
2022-10-25T05:09:29.324Z,13.38
2022-10-25T05:10:29.306Z,13.32
2022-10-25T05:11:29.376Z,13.39
2022-10-25T05:12:29.274Z,13.32
2022-10-25T05:13:29.267Z,13.26
2022-10-25T05:14:29.247Z,13.25
2022-10-25T05:15:29.237Z,13.29
2022-10-25T05:16:29.223Z,13.28
2022-10-25T05:17:29.209Z,13.30
2022-10-25T05:18:29.194Z,13.28
2022-10-25T05:19:29.176Z,13.41
2022-10-25T05:20:29.182Z,13.29
2022-10-25T05:21:29.269Z,13.38
2022-10-25T05:22:29.191Z,13.32
2022-10-25T05:23:29.126Z,13.22
2022-10-25T05:24:29.102Z,13.32
2022-10-25T05:25:29.098Z,13.25
2022-10-25T05:26:29.077Z,13.12
2022-10-25T05:27:29.061Z,13.12
2022-10-25T05:28:29.084Z,13.19
2022-10-25T05:29:29.059Z,13.22
2022-10-25T05:30:29.026Z,13.29
2022-10-25T05:31:29.008Z,13.14
2022-10-25T05:32:29.009Z,13.20
2022-10-25T05:33:28.974Z,13.20
2022-10-25T05:34:28.959Z,13.19
2022-10-25T05:35:28.942Z,13.25
2022-10-25T05:36:28.934Z,13.14
2022-10-25T05:37:28.914Z,13.19
2022-10-25T05:38:28.904Z,13.23
2022-10-25T05:39:28.905Z,13.28
2022-10-25T05:40:28.869Z,13.23
2022-10-25T05:41:30.825Z,13.20
2022-10-25T05:42:28.839Z,13.17
2022-10-25T05:43:28.827Z,13.14
2022-10-25T05:44:28.850Z,13.22
2022-10-25T05:45:28.794Z,13.08
2022-10-25T05:46:28.785Z,13.14
2022-10-25T05:47:28.767Z,13.23
2022-10-25T05:48:28.755Z,13.23
2022-10-25T05:49:28.745Z,13.20
2022-10-25T05:50:28.802Z,13.20
2022-10-25T05:51:33.496Z,13.10
2022-10-25T05:52:28.694Z,13.23
2022-10-25T05:53:28.681Z,13.15
2022-10-25T05:54:28.674Z,13.12
2022-10-25T05:55:28.649Z,13.20
2022-10-25T05:56:28.657Z,13.14
2022-10-25T05:57:28.620Z,13.14
2022-10-25T05:58:28.630Z,13.11
2022-10-25T05:59:28.587Z,13.17
2022-10-25T06:00:28.685Z,13.22
2022-10-25T06:01:28.654Z,13.20
2022-10-25T06:02:28.590Z,13.23
2022-10-25T06:03:28.558Z,13.23
2022-10-25T06:04:28.518Z,13.23
2022-10-25T06:05:28.505Z,13.22
2022-10-25T06:06:28.493Z,13.20
2022-10-25T06:07:28.489Z,13.25
2022-10-25T06:08:28.459Z,13.19
2022-10-25T06:09:28.470Z,13.29
2022-10-25T06:10:28.480Z,13.29
2022-10-25T06:11:28.415Z,13.28
2022-10-25T06:12:28.440Z,13.22
2022-10-25T06:13:28.392Z,13.25
2022-10-25T06:14:28.367Z,13.33
2022-10-25T06:15:28.358Z,13.28
2022-10-25T06:16:28.339Z,13.25
2022-10-25T06:17:28.326Z,13.30
2022-10-25T06:18:28.334Z,13.26
2022-10-25T06:19:28.323Z,13.26
2022-10-25T06:20:28.384Z,13.14
2022-10-25T06:21:28.287Z,13.23
2022-10-25T06:22:28.252Z,13.28
2022-10-25T06:23:28.242Z,13.22
2022-10-25T06:24:28.292Z,13.26
2022-10-25T06:25:28.211Z,13.25
2022-10-25T06:26:28.198Z,13.12
2022-10-25T06:27:28.188Z,13.23
2022-10-25T06:28:28.162Z,13.25
2022-10-25T06:29:28.154Z,13.14
2022-10-25T06:30:28.266Z,13.22
2022-10-25T06:31:28.137Z,13.19
2022-10-25T06:32:28.131Z,13.29
2022-10-25T06:33:28.264Z,13.23
2022-10-25T06:34:28.103Z,13.26
2022-10-25T06:35:28.069Z,13.29
2022-10-25T06:36:28.058Z,13.26
2022-10-25T06:37:28.060Z,13.25
2022-10-25T06:38:28.021Z,13.25
2022-10-25T06:39:28.005Z,13.19
2022-10-25T06:40:28.003Z,13.28
2022-10-25T06:41:28.047Z,13.32
2022-10-25T06:42:28.022Z,13.25
2022-10-25T06:43:27.951Z,13.33
2022-10-25T06:44:27.929Z,13.29
2022-10-25T06:45:27.916Z,13.30
2022-10-25T06:46:27.908Z,13.41
2022-10-25T06:47:27.888Z,13.38
2022-10-25T06:48:27.892Z,13.36
2022-10-25T06:49:27.866Z,13.30
2022-10-25T06:50:27.842Z,13.33
2022-10-25T06:51:27.829Z,13.36
2022-10-25T06:52:27.811Z,13.36
2022-10-25T06:53:27.841Z,13.39
2022-10-25T06:54:27.825Z,13.39
2022-10-25T06:55:27.796Z,13.48
2022-10-25T06:56:27.754Z,13.44
2022-10-25T06:57:27.778Z,13.45
2022-10-25T06:58:27.748Z,13.36
2022-10-25T06:59:27.738Z,13.29
2022-10-25T07:00:27.713Z,13.39
2022-10-25T07:01:27.797Z,13.33
2022-10-25T07:02:27.839Z,13.49
2022-10-25T07:03:27.669Z,13.44
2022-10-25T07:04:27.658Z,13.41
2022-10-25T07:05:27.685Z,13.41
2022-10-25T07:06:27.720Z,13.48
2022-10-25T07:07:27.675Z,13.54
2022-10-25T07:08:27.597Z,13.42
2022-10-25T07:09:27.590Z,13.55
2022-10-25T07:10:27.552Z,13.52
2022-10-25T07:11:27.591Z,13.51
2022-10-25T07:12:27.584Z,13.46
2022-10-25T07:13:27.552Z,13.46
2022-10-25T07:14:27.500Z,13.44
2022-10-25T07:15:27.516Z,13.46
2022-10-25T07:16:27.505Z,13.41
2022-10-25T07:17:27.458Z,13.49
2022-10-25T07:18:27.437Z,13.42
2022-10-25T07:19:27.425Z,13.55
2022-10-25T07:20:27.535Z,13.49
2022-10-25T07:21:27.397Z,13.39
2022-10-25T07:22:27.378Z,13.42
2022-10-25T07:23:27.364Z,13.38
2022-10-25T07:24:27.351Z,13.42
2022-10-25T07:25:27.336Z,13.45
2022-10-25T07:26:27.323Z,13.39
2022-10-25T07:27:27.315Z,13.39
2022-10-25T07:28:27.291Z,13.45
2022-10-25T07:29:27.289Z,13.48
2022-10-25T07:30:27.262Z,13.51
2022-10-25T07:31:27.297Z,13.46
2022-10-25T07:32:27.232Z,13.55
2022-10-25T07:33:27.232Z,13.55
2022-10-25T07:34:27.217Z,13.54
2022-10-25T07:35:27.193Z,13.54
2022-10-25T07:36:27.182Z,13.52
2022-10-25T07:37:27.192Z,13.55
2022-10-25T07:38:28.020Z,13.52
2022-10-25T07:39:27.148Z,13.57
2022-10-25T07:40:27.117Z,13.60
2022-10-25T07:41:27.114Z,13.62
2022-10-25T07:42:27.115Z,13.57
2022-10-25T07:43:27.080Z,13.57
2022-10-25T07:44:27.064Z,13.52
2022-10-25T07:45:28.883Z,13.52
2022-10-25T07:46:27.036Z,13.51
2022-10-25T07:47:27.063Z,13.57
2022-10-25T07:48:27.017Z,13.55
2022-10-25T07:49:26.993Z,13.55
2022-10-25T07:50:27.006Z,13.57
2022-10-25T07:51:26.965Z,13.60
2022-10-25T07:52:26.946Z,13.57
2022-10-25T07:53:26.935Z,13.57
2022-10-25T07:54:26.919Z,13.51
2022-10-25T07:55:26.903Z,13.60
2022-10-25T07:56:26.890Z,13.62
2022-10-25T07:57:26.879Z,13.59
2022-10-25T07:58:26.890Z,13.54
2022-10-25T07:59:26.851Z,13.60
2022-10-25T08:00:26.835Z,13.59
2022-10-25T08:01:26.897Z,13.63
2022-10-25T08:02:26.804Z,13.55
2022-10-25T08:03:26.869Z,13.66
2022-10-25T08:04:26.835Z,13.64
2022-10-25T08:05:26.762Z,13.59
2022-10-25T08:06:26.750Z,13.60
2022-10-25T08:07:26.732Z,13.57
2022-10-25T08:08:26.723Z,13.57
2022-10-25T08:09:37.806Z,13.57
2022-10-25T08:10:26.687Z,13.67
2022-10-25T08:11:26.675Z,13.70
2022-10-25T08:12:26.738Z,13.66
2022-10-25T08:13:26.647Z,13.67
2022-10-25T08:14:26.662Z,13.77
2022-10-25T08:15:26.616Z,13.73
2022-10-25T08:16:26.605Z,13.77
2022-10-25T08:17:26.594Z,13.75
2022-10-25T08:18:26.635Z,13.73
2022-10-25T08:19:26.589Z,13.71
2022-10-25T08:20:49.121Z,13.75
2022-10-25T08:21:26.531Z,13.77
2022-10-25T08:22:26.517Z,13.82
2022-10-25T08:23:26.522Z,13.85
2022-10-25T08:24:26.541Z,13.71
2022-10-25T08:25:27.054Z,13.81
2022-10-25T08:26:26.485Z,13.79
2022-10-25T08:27:26.448Z,13.78
2022-10-25T08:28:26.435Z,13.77
2022-10-25T08:29:26.417Z,13.82
2022-10-25T08:30:26.411Z,13.85
2022-10-25T08:31:26.391Z,13.84
2022-10-25T08:32:26.385Z,13.84
2022-10-25T08:33:26.359Z,13.85
2022-10-25T08:34:28.424Z,13.84
2022-10-25T08:35:26.343Z,13.88
2022-10-25T08:36:26.315Z,13.88
2022-10-25T08:37:26.306Z,13.91
2022-10-25T08:38:26.289Z,13.91
2022-10-25T08:39:26.276Z,13.92
2022-10-25T08:40:26.265Z,13.92
2022-10-25T08:41:26.253Z,13.96
2022-10-25T08:42:26.237Z,13.97
2022-10-25T08:43:26.217Z,14.03
2022-10-25T08:44:26.203Z,14.03
2022-10-25T08:45:26.235Z,13.99
2022-10-25T08:46:26.174Z,14.02
2022-10-25T08:47:26.172Z,14.06
2022-10-25T08:48:26.151Z,14.02
2022-10-25T08:49:26.136Z,14.06
2022-10-25T08:50:26.116Z,14.17
2022-10-25T08:51:26.105Z,14.03
2022-10-25T08:52:26.092Z,14.12
2022-10-25T08:53:26.078Z,14.07
2022-10-25T08:54:26.059Z,14.04
2022-10-25T08:55:26.065Z,14.02
2022-10-25T08:56:26.033Z,14.12
2022-10-25T08:57:26.019Z,14.04
2022-10-25T08:58:26.016Z,14.07
2022-10-25T08:59:26.061Z,14.03
2022-10-25T09:00:25.978Z,14.06
2022-10-25T09:01:26.097Z,14.09
2022-10-25T09:02:26.063Z,14.22
2022-10-25T09:03:25.933Z,14.20
2022-10-25T09:04:25.921Z,14.12
2022-10-25T09:05:25.945Z,14.14
2022-10-25T09:06:25.903Z,14.18
2022-10-25T09:07:25.879Z,14.15
2022-10-25T09:08:25.867Z,14.22
2022-10-25T09:09:25.851Z,14.22
2022-10-25T09:10:26.053Z,14.14
2022-10-25T09:11:25.922Z,14.20
2022-10-25T09:12:25.817Z,14.28
2022-10-25T09:13:25.852Z,14.14
2022-10-25T09:14:25.781Z,14.06
2022-10-25T09:15:25.858Z,14.12
2022-10-25T09:16:26.035Z,14.10
2022-10-25T09:17:25.748Z,14.15
2022-10-25T09:18:25.744Z,14.20
2022-10-25T09:19:25.716Z,14.14
2022-10-25T09:20:25.727Z,14.18
2022-10-25T09:21:25.684Z,14.17
2022-10-25T09:22:25.692Z,14.18
2022-10-25T09:23:25.743Z,14.21
2022-10-25T09:24:25.647Z,14.27
2022-10-25T09:25:25.625Z,14.27
2022-10-25T09:26:25.671Z,14.25
2022-10-25T09:27:25.641Z,14.35
2022-10-25T09:28:25.589Z,14.36
2022-10-25T09:29:25.611Z,14.35
2022-10-25T09:30:25.708Z,14.32
2022-10-25T09:31:25.804Z,14.36
2022-10-25T09:32:25.684Z,14.47
2022-10-25T09:33:25.579Z,14.37
2022-10-25T09:34:25.504Z,14.36
2022-10-25T09:35:25.518Z,14.39
2022-10-25T09:36:25.474Z,14.33
2022-10-25T09:37:25.468Z,14.37
2022-10-25T09:38:25.865Z,14.40
2022-10-25T09:39:25.429Z,14.39
2022-10-25T09:40:25.676Z,14.37
2022-10-25T09:41:25.451Z,14.36
2022-10-25T09:42:25.400Z,14.40
2022-10-25T09:43:25.374Z,14.36
2022-10-25T09:44:25.367Z,14.33
2022-10-25T09:45:25.360Z,14.33
2022-10-25T09:46:25.347Z,14.36
2022-10-25T09:47:25.349Z,14.32
2022-10-25T09:48:25.307Z,14.32
2022-10-25T09:49:25.363Z,14.25
2022-10-25T09:50:25.292Z,14.33
2022-10-25T09:51:25.267Z,14.25
2022-10-25T09:52:25.273Z,14.35
2022-10-25T09:53:25.237Z,14.33
2022-10-25T09:54:25.227Z,14.37
2022-10-25T09:55:25.238Z,14.35
2022-10-25T09:56:25.209Z,14.29
2022-10-25T09:57:25.226Z,14.35
2022-10-25T09:58:25.187Z,14.33
2022-10-25T09:59:25.160Z,14.37
2022-10-25T10:00:25.155Z,14.45
2022-10-25T10:01:25.273Z,14.51
2022-10-25T10:02:25.241Z,14.39
2022-10-25T10:03:25.130Z,14.45
2022-10-25T10:04:25.084Z,14.42
2022-10-25T10:05:25.068Z,14.37
2022-10-25T10:06:25.090Z,14.35
2022-10-25T10:07:25.045Z,14.43
2022-10-25T10:08:25.062Z,14.40
2022-10-25T10:09:25.015Z,14.33
2022-10-25T10:10:25.004Z,14.47
2022-10-25T10:11:24.992Z,14.37
2022-10-25T10:12:25.022Z,14.45
2022-10-25T10:13:24.961Z,14.37
2022-10-25T10:14:24.946Z,14.40
2022-10-25T10:15:24.931Z,14.37
2022-10-25T10:16:24.917Z,14.37
2022-10-25T10:17:24.910Z,14.42
2022-10-25T10:18:25.094Z,14.42
2022-10-25T10:19:24.990Z,14.40
2022-10-25T10:20:25.570Z,14.40
2022-10-25T10:21:24.854Z,14.45
2022-10-25T10:22:24.840Z,14.39
2022-10-25T10:23:24.910Z,14.32
2022-10-25T10:24:24.897Z,14.35
2022-10-25T10:25:24.867Z,14.33
2022-10-25T10:26:24.784Z,14.42
2022-10-25T10:27:24.764Z,14.39
2022-10-25T10:28:24.808Z,14.39
2022-10-25T10:29:24.747Z,14.36
2022-10-25T10:30:24.723Z,14.37
2022-10-25T10:31:24.710Z,14.42
2022-10-25T10:32:24.702Z,14.47
2022-10-25T10:33:24.691Z,14.46
2022-10-25T10:34:24.732Z,14.47
2022-10-25T10:35:24.655Z,14.55
2022-10-25T10:36:24.642Z,14.45
2022-10-25T10:37:24.627Z,14.50
2022-10-25T10:38:24.618Z,14.60
2022-10-25T10:39:24.597Z,14.54
2022-10-25T10:40:24.604Z,14.68
2022-10-25T10:41:24.578Z,14.69
2022-10-25T10:42:24.632Z,14.77
2022-10-25T10:43:24.581Z,14.78
2022-10-25T10:44:24.564Z,14.80
2022-10-25T10:45:24.520Z,14.84
2022-10-25T10:46:24.507Z,14.88
2022-10-25T10:47:24.517Z,15.06
2022-10-25T10:48:24.479Z,15.17
2022-10-25T10:49:24.506Z,15.25
2022-10-25T10:50:24.484Z,15.17
2022-10-25T10:51:43.112Z,15.29
2022-10-25T10:52:24.429Z,15.35
2022-10-25T10:53:24.410Z,15.35
2022-10-25T10:54:24.402Z,15.28
2022-10-25T10:55:24.385Z,15.11
2022-10-25T10:56:24.370Z,15.11
2022-10-25T10:57:24.360Z,15.35
2022-10-25T10:58:24.366Z,15.50
2022-10-25T10:59:24.355Z,15.54
2022-10-25T11:00:24.325Z,15.54
2022-10-25T11:01:24.418Z,15.59
2022-10-25T11:02:24.619Z,15.74
2022-10-25T11:03:24.277Z,15.92
2022-10-25T11:04:26.247Z,15.93
2022-10-25T11:05:24.262Z,15.93
2022-10-25T11:06:24.240Z,15.90
2022-10-25T11:07:24.224Z,15.90
2022-10-25T11:08:24.233Z,15.72
2022-10-25T11:09:24.203Z,15.68
2022-10-25T11:10:24.190Z,15.69
2022-10-25T11:11:24.204Z,15.69
2022-10-25T11:12:24.162Z,15.68
2022-10-25T11:13:24.158Z,15.69
2022-10-25T11:14:24.141Z,15.60
2022-10-25T11:15:24.128Z,15.59
2022-10-25T11:16:27.205Z,15.68
2022-10-25T11:17:24.096Z,15.82
2022-10-25T11:18:24.125Z,15.82
2022-10-25T11:19:24.096Z,15.80
2022-10-25T11:20:24.063Z,15.80
2022-10-25T11:21:24.048Z,15.80
2022-10-25T11:22:24.115Z,15.80
2022-10-25T11:23:24.034Z,15.82
2022-10-25T11:24:24.034Z,15.82
2022-10-25T11:25:23.994Z,15.72
2022-10-25T11:26:24.013Z,15.72
2022-10-25T11:27:23.969Z,15.57
2022-10-25T11:28:23.957Z,15.49
2022-10-25T11:29:23.971Z,15.62
2022-10-25T11:30:23.935Z,15.62
2022-10-25T11:31:23.950Z,15.65
2022-10-25T11:32:23.960Z,15.59
2022-10-25T11:33:23.891Z,15.68
2022-10-25T11:34:23.882Z,15.67
2022-10-25T11:35:23.890Z,15.56
2022-10-25T11:36:23.866Z,15.54
2022-10-25T11:37:23.837Z,15.59
2022-10-25T11:38:24.216Z,15.65
2022-10-25T11:39:23.822Z,15.68
2022-10-25T11:40:23.844Z,15.69
2022-10-25T11:41:23.790Z,15.68
2022-10-25T11:43:23.763Z,15.57
2022-10-25T11:44:23.753Z,15.56
2022-10-25T11:45:23.769Z,15.46
2022-10-25T11:46:23.728Z,15.50
2022-10-25T11:47:23.712Z,15.60
2022-10-25T11:48:23.731Z,15.60
2022-10-25T11:49:23.689Z,15.64
2022-10-25T11:50:23.695Z,15.59
2022-10-25T11:51:23.668Z,15.69
2022-10-25T11:52:23.651Z,15.80
2022-10-25T11:53:23.638Z,15.72
2022-10-25T11:54:23.703Z,15.56
2022-10-25T11:55:23.613Z,15.44
2022-10-25T11:56:23.600Z,15.50
2022-10-25T11:57:23.611Z,15.25
2022-10-25T11:58:23.581Z,15.09
2022-10-25T11:59:23.557Z,15.07
2022-10-25T12:00:23.613Z,15.01
2022-10-25T12:01:23.625Z,14.89
2022-10-25T12:02:23.564Z,14.91
2022-10-25T12:03:23.531Z,14.91
2022-10-25T12:04:26.905Z,14.91
2022-10-25T12:05:23.515Z,15.06
2022-10-25T12:06:23.467Z,15.07
2022-10-25T12:07:23.451Z,15.03
2022-10-25T12:08:23.446Z,15.02
2022-10-25T12:09:23.427Z,14.95
2022-10-25T12:10:23.551Z,14.80
2022-10-25T12:11:23.408Z,14.84
2022-10-25T12:12:23.392Z,14.77
2022-10-25T12:13:23.377Z,14.84
2022-10-25T12:14:23.363Z,14.78
2022-10-25T12:15:23.389Z,14.80
2022-10-25T12:16:23.334Z,14.81
2022-10-25T12:17:23.323Z,14.86
2022-10-25T12:18:26.106Z,14.86
2022-10-25T12:19:23.294Z,14.81
2022-10-25T12:20:23.352Z,14.81
2022-10-25T12:21:23.270Z,14.88
2022-10-25T12:22:23.284Z,14.78
2022-10-25T12:23:23.239Z,14.81
2022-10-25T12:24:23.226Z,14.83
2022-10-25T12:25:23.212Z,14.83
2022-10-25T12:26:23.302Z,14.81
2022-10-25T12:27:23.189Z,14.89
2022-10-25T12:28:23.174Z,14.91
2022-10-25T12:29:23.160Z,14.91
2022-10-25T12:30:23.218Z,14.92
2022-10-25T12:31:23.132Z,15.03
2022-10-25T12:32:23.121Z,15.10
2022-10-25T12:33:23.164Z,15.01
2022-10-25T12:34:23.094Z,15.01
2022-10-25T12:35:23.078Z,14.96
2022-10-25T12:36:23.068Z,14.95
2022-10-25T12:37:23.059Z,14.98
2022-10-25T12:38:23.040Z,14.96
2022-10-25T12:39:23.062Z,15.01
2022-10-25T12:41:22.995Z,14.88
2022-10-25T12:42:23.087Z,14.83
2022-10-25T12:43:23.010Z,14.73
2022-10-25T12:44:22.959Z,14.84
2022-10-25T12:45:22.943Z,14.88
2022-10-25T12:46:22.939Z,14.99
2022-10-25T12:47:22.915Z,15.13
2022-10-25T12:48:22.904Z,15.16
2022-10-25T12:49:22.893Z,15.34
2022-10-25T12:50:22.885Z,15.41
2022-10-25T12:51:22.865Z,15.53
2022-10-25T12:52:22.857Z,15.50
2022-10-25T12:53:22.835Z,15.67
2022-10-25T12:54:22.830Z,15.60
2022-10-25T12:55:22.810Z,15.68
2022-10-25T12:56:22.825Z,15.71
2022-10-25T12:57:22.786Z,15.69